sensor_id;sensor_type;location;lat;lon;timestamp;P1;durP1;ratioP1;P2;durP2;ratioP2
29812;SDS011;16707;48.106;11.548;2022-09-09T00:02:21;2.63;;;1.55;;
29812;SDS011;16707;48.106;11.548;2022-09-09T00:04:59;2.05;;;1.60;;
29812;SDS011;16707;48.106;11.548;2022-09-09T00:07:45;2.15;;;1.58;;
29812;SDS011;16707;48.106;11.548;2022-09-09T00:10:16;2.17;;;1.60;;
29812;SDS011;16707;48.106;11.548;2022-09-09T00:12:52;2.85;;;1.80;;
29812;SDS011;16707;48.106;11.548;2022-09-09T00:15:30;3.03;;;2.40;;
29812;SDS011;16707;48.106;11.548;2022-09-09T00:18:13;2.42;;;1.70;;
29812;SDS011;16707;48.106;11.548;2022-09-09T00:20:57;2.80;;;1.77;;
29812;SDS011;16707;48.106;11.548;2022-09-09T00:23:33;2.20;;;2.00;;
29812;SDS011;16707;48.106;11.548;2022-09-09T00:26:06;2.35;;;1.85;;
29812;SDS011;16707;48.106;11.548;2022-09-09T00:28:48;3.25;;;1.75;;
29812;SDS011;16707;48.106;11.548;2022-09-09T00:31:26;4.38;;;1.80;;
29812;SDS011;16707;48.106;11.548;2022-09-09T00:34:05;1.90;;;1.80;;
29812;SDS011;16707;48.106;11.548;2022-09-09T00:36:42;2.53;;;1.88;;
29812;SDS011;16707;48.106;11.548;2022-09-09T00:39:17;3.03;;;1.88;;
29812;SDS011;16707;48.106;11.548;2022-09-09T00:42:05;3.80;;;1.60;;
29812;SDS011;16707;48.106;11.548;2022-09-09T00:44:51;2.30;;;1.50;;
29812;SDS011;16707;48.106;11.548;2022-09-09T00:47:30;5.78;;;2.30;;
29812;SDS011;16707;48.106;11.548;2022-09-09T00:50:21;2.30;;;1.70;;
29812;SDS011;16707;48.106;11.548;2022-09-09T00:53:11;3.10;;;2.00;;
29812;SDS011;16707;48.106;11.548;2022-09-09T00:56:00;3.95;;;2.13;;
29812;SDS011;16707;48.106;11.548;2022-09-09T00:58:39;4.22;;;1.80;;
29812;SDS011;16707;48.106;11.548;2022-09-09T01:01:13;2.40;;;1.48;;
29812;SDS011;16707;48.106;11.548;2022-09-09T01:03:47;2.45;;;1.50;;
29812;SDS011;16707;48.106;11.548;2022-09-09T01:06:20;2.53;;;1.52;;
29812;SDS011;16707;48.106;11.548;2022-09-09T01:09:12;2.53;;;1.77;;
29812;SDS011;16707;48.106;11.548;2022-09-09T01:11:53;2.45;;;1.50;;
29812;SDS011;16707;48.106;11.548;2022-09-09T01:14:32;3.35;;;1.98;;
29812;SDS011;16707;48.106;11.548;2022-09-09T01:17:22;2.28;;;1.95;;
29812;SDS011;16707;48.106;11.548;2022-09-09T01:20:01;2.58;;;1.67;;
29812;SDS011;16707;48.106;11.548;2022-09-09T01:22:44;2.67;;;1.80;;
29812;SDS011;16707;48.106;11.548;2022-09-09T01:28:43;3.13;;;1.58;;
29812;SDS011;16707;48.106;11.548;2022-09-09T01:31:28;3.53;;;1.50;;
29812;SDS011;16707;48.106;11.548;2022-09-09T01:34:14;4.03;;;1.80;;
29812;SDS011;16707;48.106;11.548;2022-09-09T01:36:45;1.95;;;1.23;;
29812;SDS011;16707;48.106;11.548;2022-09-09T01:39:38;1.83;;;1.42;;
29812;SDS011;16707;48.106;11.548;2022-09-09T01:42:13;3.58;;;1.70;;
29812;SDS011;16707;48.106;11.548;2022-09-09T01:44:57;3.50;;;1.52;;
29812;SDS011;16707;48.106;11.548;2022-09-09T01:47:31;2.80;;;1.65;;
29812;SDS011;16707;48.106;11.548;2022-09-09T01:50:04;2.55;;;1.70;;
29812;SDS011;16707;48.106;11.548;2022-09-09T01:52:42;2.60;;;1.58;;
29812;SDS011;16707;48.106;11.548;2022-09-09T01:55:17;2.13;;;1.33;;
29812;SDS011;16707;48.106;11.548;2022-09-09T01:57:56;1.55;;;1.35;;
29812;SDS011;16707;48.106;11.548;2022-09-09T02:00:47;2.55;;;1.70;;
29812;SDS011;16707;48.106;11.548;2022-09-09T02:03:32;1.88;;;1.52;;
29812;SDS011;16707;48.106;11.548;2022-09-09T02:06:04;3.35;;;1.70;;
29812;SDS011;16707;48.106;11.548;2022-09-09T02:08:43;1.73;;;1.58;;
29812;SDS011;16707;48.106;11.548;2022-09-09T02:11:20;1.67;;;1.27;;
29812;SDS011;16707;48.106;11.548;2022-09-09T02:13:54;3.42;;;1.80;;
29812;SDS011;16707;48.106;11.548;2022-09-09T02:16:37;3.08;;;1.60;;
29812;SDS011;16707;48.106;11.548;2022-09-09T02:19:19;1.60;;;1.50;;
29812;SDS011;16707;48.106;11.548;2022-09-09T02:21:57;2.05;;;1.77;;
29812;SDS011;16707;48.106;11.548;2022-09-09T02:24:41;3.83;;;1.77;;
29812;SDS011;16707;48.106;11.548;2022-09-09T02:27:12;3.10;;;1.65;;
29812;SDS011;16707;48.106;11.548;2022-09-09T02:29:48;3.80;;;1.70;;
29812;SDS011;16707;48.106;11.548;2022-09-09T02:32:26;2.13;;;1.90;;
29812;SDS011;16707;48.106;11.548;2022-09-09T02:35:02;2.60;;;1.98;;
29812;SDS011;16707;48.106;11.548;2022-09-09T02:37:39;2.67;;;1.63;;
29812;SDS011;16707;48.106;11.548;2022-09-09T02:40:20;2.70;;;1.80;;
29812;SDS011;16707;48.106;11.548;2022-09-09T02:42:54;1.63;;;1.52;;
29812;SDS011;16707;48.106;11.548;2022-09-09T02:48:00;2.08;;;1.60;;
29812;SDS011;16707;48.106;11.548;2022-09-09T02:50:48;4.05;;;1.65;;
29812;SDS011;16707;48.106;11.548;2022-09-09T02:53:23;2.65;;;1.70;;
29812;SDS011;16707;48.106;11.548;2022-09-09T02:56:00;2.55;;;1.70;;
29812;SDS011;16707;48.106;11.548;2022-09-09T02:58:43;1.70;;;1.60;;
29812;SDS011;16707;48.106;11.548;2022-09-09T03:01:11;2.88;;;1.50;;
29812;SDS011;16707;48.106;11.548;2022-09-09T03:03:52;2.15;;;1.80;;
29812;SDS011;16707;48.106;11.548;2022-09-09T03:06:20;1.85;;;1.67;;
29812;SDS011;16707;48.106;11.548;2022-09-09T03:09:00;1.73;;;1.35;;
29812;SDS011;16707;48.106;11.548;2022-09-09T03:11:31;2.65;;;1.70;;
29812;SDS011;16707;48.106;11.548;2022-09-09T03:14:08;2.30;;;1.65;;
29812;SDS011;16707;48.106;11.548;2022-09-09T03:16:41;1.55;;;1.45;;
29812;SDS011;16707;48.106;11.548;2022-09-09T03:19:18;3.85;;;1.98;;
29812;SDS011;16707;48.106;11.548;2022-09-09T03:21:50;4.15;;;1.85;;
29812;SDS011;16707;48.106;11.548;2022-09-09T03:24:22;3.50;;;1.73;;
29812;SDS011;16707;48.106;11.548;2022-09-09T03:27:00;3.72;;;1.60;;
29812;SDS011;16707;48.106;11.548;2022-09-09T03:29:31;2.03;;;1.55;;
29812;SDS011;16707;48.106;11.548;2022-09-09T03:32:06;2.13;;;1.92;;
29812;SDS011;16707;48.106;11.548;2022-09-09T03:34:44;6.63;;;2.05;;
29812;SDS011;16707;48.106;11.548;2022-09-09T03:37:12;2.58;;;1.73;;
29812;SDS011;16707;48.106;11.548;2022-09-09T03:39:43;2.60;;;2.15;;
29812;SDS011;16707;48.106;11.548;2022-09-09T03:42:11;2.33;;;2.13;;
29812;SDS011;16707;48.106;11.548;2022-09-09T03:44:47;3.08;;;1.85;;
29812;SDS011;16707;48.106;11.548;2022-09-09T03:47:28;2.13;;;1.50;;
29812;SDS011;16707;48.106;11.548;2022-09-09T03:49:56;2.50;;;1.83;;
29812;SDS011;16707;48.106;11.548;2022-09-09T03:52:27;2.50;;;1.95;;
29812;SDS011;16707;48.106;11.548;2022-09-09T03:54:56;3.70;;;2.13;;
29812;SDS011;16707;48.106;11.548;2022-09-09T03:57:29;2.30;;;2.00;;
29812;SDS011;16707;48.106;11.548;2022-09-09T04:00:07;3.47;;;1.98;;
29812;SDS011;16707;48.106;11.548;2022-09-09T04:02:43;3.83;;;2.10;;
29812;SDS011;16707;48.106;11.548;2022-09-09T04:05:17;2.33;;;1.70;;
29812;SDS011;16707;48.106;11.548;2022-09-09T04:07:46;2.40;;;1.85;;
29812;SDS011;16707;48.106;11.548;2022-09-09T04:10:16;3.83;;;1.85;;
29812;SDS011;16707;48.106;11.548;2022-09-09T04:12:46;3.22;;;1.83;;
29812;SDS011;16707;48.106;11.548;2022-09-09T04:15:20;2.70;;;1.85;;
29812;SDS011;16707;48.106;11.548;2022-09-09T04:17:59;1.92;;;1.48;;
29812;SDS011;16707;48.106;11.548;2022-09-09T04:20:28;4.15;;;1.55;;
29812;SDS011;16707;48.106;11.548;2022-09-09T04:22:58;2.47;;;1.60;;
29812;SDS011;16707;48.106;11.548;2022-09-09T04:25:26;2.28;;;1.60;;
29812;SDS011;16707;48.106;11.548;2022-09-09T04:27:58;3.72;;;1.60;;
29812;SDS011;16707;48.106;11.548;2022-09-09T04:30:34;2.28;;;1.58;;
29812;SDS011;16707;48.106;11.548;2022-09-09T04:33:05;2.28;;;1.60;;
29812;SDS011;16707;48.106;11.548;2022-09-09T04:35:36;2.58;;;1.70;;
29812;SDS011;16707;48.106;11.548;2022-09-09T04:38:11;3.30;;;1.77;;
29812;SDS011;16707;48.106;11.548;2022-09-09T04:40:42;2.10;;;1.70;;
29812;SDS011;16707;48.106;11.548;2022-09-09T04:43:15;1.80;;;1.40;;
29812;SDS011;16707;48.106;11.548;2022-09-09T04:45:50;1.63;;;1.50;;
29812;SDS011;16707;48.106;11.548;2022-09-09T04:48:25;3.25;;;1.60;;
29812;SDS011;16707;48.106;11.548;2022-09-09T04:50:58;2.35;;;1.50;;
29812;SDS011;16707;48.106;11.548;2022-09-09T04:53:33;1.85;;;1.33;;
29812;SDS011;16707;48.106;11.548;2022-09-09T04:56:02;2.03;;;1.60;;
29812;SDS011;16707;48.106;11.548;2022-09-09T04:58:32;4.03;;;2.10;;
29812;SDS011;16707;48.106;11.548;2022-09-09T05:01:10;2.60;;;1.80;;
29812;SDS011;16707;48.106;11.548;2022-09-09T05:03:42;3.63;;;2.42;;
29812;SDS011;16707;48.106;11.548;2022-09-09T05:06:18;5.32;;;2.30;;
29812;SDS011;16707;48.106;11.548;2022-09-09T05:08:56;2.40;;;2.20;;
29812;SDS011;16707;48.106;11.548;2022-09-09T05:11:31;3.10;;;1.80;;
29812;SDS011;16707;48.106;11.548;2022-09-09T05:14:06;4.32;;;2.13;;
29812;SDS011;16707;48.106;11.548;2022-09-09T05:16:34;2.85;;;1.88;;
29812;SDS011;16707;48.106;11.548;2022-09-09T05:19:04;3.35;;;1.95;;
29812;SDS011;16707;48.106;11.548;2022-09-09T05:21:45;3.67;;;2.10;;
29812;SDS011;16707;48.106;11.548;2022-09-09T05:24:16;2.95;;;1.80;;
29812;SDS011;16707;48.106;11.548;2022-09-09T05:26:48;2.70;;;1.95;;
29812;SDS011;16707;48.106;11.548;2022-09-09T05:29:16;2.50;;;2.03;;
29812;SDS011;16707;48.106;11.548;2022-09-09T05:31:48;2.20;;;1.80;;
29812;SDS011;16707;48.106;11.548;2022-09-09T05:34:21;2.47;;;2.03;;
29812;SDS011;16707;48.106;11.548;2022-09-09T05:36:56;1.95;;;1.63;;
29812;SDS011;16707;48.106;11.548;2022-09-09T05:39:24;2.42;;;1.80;;
29812;SDS011;16707;48.106;11.548;2022-09-09T05:41:51;2.65;;;1.90;;
29812;SDS011;16707;48.106;11.548;2022-09-09T05:44:19;2.88;;;1.67;;
29812;SDS011;16707;48.106;11.548;2022-09-09T05:46:52;2.28;;;1.83;;
29812;SDS011;16707;48.106;11.548;2022-09-09T05:49:20;1.75;;;1.20;;
29812;SDS011;16707;48.106;11.548;2022-09-09T05:51:53;1.90;;;1.60;;
29812;SDS011;16707;48.106;11.548;2022-09-09T05:54:22;2.63;;;1.80;;
29812;SDS011;16707;48.106;11.548;2022-09-09T05:56:52;2.05;;;1.63;;
29812;SDS011;16707;48.106;11.548;2022-09-09T06:01:55;2.35;;;1.52;;
29812;SDS011;16707;48.106;11.548;2022-09-09T06:04:28;2.67;;;1.77;;
29812;SDS011;16707;48.106;11.548;2022-09-09T06:06:58;2.85;;;1.60;;
29812;SDS011;16707;48.106;11.548;2022-09-09T06:09:29;1.70;;;1.50;;
29812;SDS011;16707;48.106;11.548;2022-09-09T06:12:04;2.10;;;1.63;;
29812;SDS011;16707;48.106;11.548;2022-09-09T06:14:37;1.25;;;1.10;;
29812;SDS011;16707;48.106;11.548;2022-09-09T06:17:04;2.03;;;1.40;;
29812;SDS011;16707;48.106;11.548;2022-09-09T06:19:37;2.15;;;1.80;;
29812;SDS011;16707;48.106;11.548;2022-09-09T06:22:07;3.13;;;1.73;;
29812;SDS011;16707;48.106;11.548;2022-09-09T06:24:38;2.60;;;1.38;;
29812;SDS011;16707;48.106;11.548;2022-09-09T06:27:08;2.92;;;2.13;;
29812;SDS011;16707;48.106;11.548;2022-09-09T06:29:37;2.88;;;1.80;;
29812;SDS011;16707;48.106;11.548;2022-09-09T06:32:12;2.45;;;1.50;;
29812;SDS011;16707;48.106;11.548;2022-09-09T06:34:39;2.00;;;1.40;;
29812;SDS011;16707;48.106;11.548;2022-09-09T06:37:10;1.95;;;1.30;;
29812;SDS011;16707;48.106;11.548;2022-09-09T06:39:40;2.30;;;1.40;;
29812;SDS011;16707;48.106;11.548;2022-09-09T06:42:14;2.08;;;1.30;;
29812;SDS011;16707;48.106;11.548;2022-09-09T06:44:44;1.50;;;1.35;;
29812;SDS011;16707;48.106;11.548;2022-09-09T06:47:12;2.10;;;1.35;;
29812;SDS011;16707;48.106;11.548;2022-09-09T06:49:39;1.90;;;1.40;;
29812;SDS011;16707;48.106;11.548;2022-09-09T06:52:10;1.73;;;1.30;;
29812;SDS011;16707;48.106;11.548;2022-09-09T06:54:37;2.90;;;1.55;;
29812;SDS011;16707;48.106;11.548;2022-09-09T06:57:08;1.90;;;1.30;;
29812;SDS011;16707;48.106;11.548;2022-09-09T06:59:35;3.10;;;1.63;;
29812;SDS011;16707;48.106;11.548;2022-09-09T07:02:02;1.17;;;1.05;;
29812;SDS011;16707;48.106;11.548;2022-09-09T07:04:30;2.08;;;1.30;;
29812;SDS011;16707;48.106;11.548;2022-09-09T07:06:58;1.75;;;1.17;;
29812;SDS011;16707;48.106;11.548;2022-09-09T07:09:27;3.38;;;1.10;;
29812;SDS011;16707;48.106;11.548;2022-09-09T07:11:58;1.38;;;1.23;;
29812;SDS011;16707;48.106;11.548;2022-09-09T07:14:26;2.47;;;1.20;;
29812;SDS011;16707;48.106;11.548;2022-09-09T07:16:57;1.95;;;1.20;;
29812;SDS011;16707;48.106;11.548;2022-09-09T07:19:27;1.55;;;1.10;;
29812;SDS011;16707;48.106;11.548;2022-09-09T07:21:57;1.75;;;1.30;;
29812;SDS011;16707;48.106;11.548;2022-09-09T07:24:27;1.50;;;1.25;;
29812;SDS011;16707;48.106;11.548;2022-09-09T07:27:00;2.03;;;1.38;;
29812;SDS011;16707;48.106;11.548;2022-09-09T07:29:28;3.10;;;1.67;;
29812;SDS011;16707;48.106;11.548;2022-09-09T07:31:55;3.28;;;1.17;;
29812;SDS011;16707;48.106;11.548;2022-09-09T07:34:27;2.92;;;1.20;;
29812;SDS011;16707;48.106;11.548;2022-09-09T07:36:55;2.95;;;1.33;;
29812;SDS011;16707;48.106;11.548;2022-09-09T07:39:29;2.65;;;1.60;;
29812;SDS011;16707;48.106;11.548;2022-09-09T07:41:57;1.35;;;1.20;;
29812;SDS011;16707;48.106;11.548;2022-09-09T07:44:28;1.15;;;1.05;;
29812;SDS011;16707;48.106;11.548;2022-09-09T07:46:57;2.63;;;1.33;;
29812;SDS011;16707;48.106;11.548;2022-09-09T07:49:27;1.67;;;1.10;;
29812;SDS011;16707;48.106;11.548;2022-09-09T07:51:54;2.47;;;1.20;;
29812;SDS011;16707;48.106;11.548;2022-09-09T07:54:22;2.95;;;1.45;;
29812;SDS011;16707;48.106;11.548;2022-09-09T07:56:58;4.13;;;1.20;;
29812;SDS011;16707;48.106;11.548;2022-09-09T07:59:32;1.13;;;1.00;;
29812;SDS011;16707;48.106;11.548;2022-09-09T08:02:00;1.48;;;1.10;;
29812;SDS011;16707;48.106;11.548;2022-09-09T08:04:37;3.28;;;1.20;;
29812;SDS011;16707;48.106;11.548;2022-09-09T08:07:11;1.33;;;1.02;;
29812;SDS011;16707;48.106;11.548;2022-09-09T08:09:39;1.23;;;1.02;;
29812;SDS011;16707;48.106;11.548;2022-09-09T08:12:11;1.00;;;0.90;;
29812;SDS011;16707;48.106;11.548;2022-09-09T08:14:39;1.05;;;0.90;;
29812;SDS011;16707;48.106;11.548;2022-09-09T08:17:06;2.53;;;1.35;;
29812;SDS011;16707;48.106;11.548;2022-09-09T08:19:35;4.07;;;1.58;;
29812;SDS011;16707;48.106;11.548;2022-09-09T08:22:04;2.35;;;1.25;;
29812;SDS011;16707;48.106;11.548;2022-09-09T08:24:32;1.20;;;1.00;;
29812;SDS011;16707;48.106;11.548;2022-09-09T08:27:01;1.30;;;1.20;;
29812;SDS011;16707;48.106;11.548;2022-09-09T08:29:38;1.27;;;1.10;;
29812;SDS011;16707;48.106;11.548;2022-09-09T08:32:05;1.20;;;1.05;;
29812;SDS011;16707;48.106;11.548;2022-09-09T08:34:41;1.63;;;1.05;;
29812;SDS011;16707;48.106;11.548;2022-09-09T08:37:14;2.15;;;1.10;;
29812;SDS011;16707;48.106;11.548;2022-09-09T08:39:44;2.78;;;1.40;;
29812;SDS011;16707;48.106;11.548;2022-09-09T08:42:25;1.85;;;1.00;;
29812;SDS011;16707;48.106;11.548;2022-09-09T08:45:06;1.17;;;1.08;;
29812;SDS011;16707;48.106;11.548;2022-09-09T08:47:50;2.58;;;1.20;;
29812;SDS011;16707;48.106;11.548;2022-09-09T08:50:28;3.55;;;1.00;;
29812;SDS011;16707;48.106;11.548;2022-09-09T08:53:02;1.90;;;1.45;;
29812;SDS011;16707;48.106;11.548;2022-09-09T08:55:41;2.17;;;1.30;;
29812;SDS011;16707;48.106;11.548;2022-09-09T08:58:16;1.55;;;1.30;;
29812;SDS011;16707;48.106;11.548;2022-09-09T09:01:00;1.63;;;1.38;;
29812;SDS011;16707;48.106;11.548;2022-09-09T09:03:52;2.30;;;1.38;;
29812;SDS011;16707;48.106;11.548;2022-09-09T09:06:31;1.95;;;1.20;;
29812;SDS011;16707;48.106;11.548;2022-09-09T09:09:18;2.55;;;1.23;;
29812;SDS011;16707;48.106;11.548;2022-09-09T09:12:07;1.65;;;1.40;;
29812;SDS011;16707;48.106;11.548;2022-09-09T09:14:45;1.58;;;1.20;;
29812;SDS011;16707;48.106;11.548;2022-09-09T09:17:18;4.53;;;1.20;;
29812;SDS011;16707;48.106;11.548;2022-09-09T09:19:50;2.20;;;1.20;;
29812;SDS011;16707;48.106;11.548;2022-09-09T09:22:18;2.30;;;1.40;;
29812;SDS011;16707;48.106;11.548;2022-09-09T09:24:54;2.85;;;1.30;;
29812;SDS011;16707;48.106;11.548;2022-09-09T09:27:27;2.47;;;1.70;;
29812;SDS011;16707;48.106;11.548;2022-09-09T09:30:01;2.03;;;1.30;;
29812;SDS011;16707;48.106;11.548;2022-09-09T09:32:44;2.80;;;1.35;;
29812;SDS011;16707;48.106;11.548;2022-09-09T09:35:19;2.08;;;1.30;;
29812;SDS011;16707;48.106;11.548;2022-09-09T09:37:47;1.20;;;1.10;;
29812;SDS011;16707;48.106;11.548;2022-09-09T09:40:16;1.98;;;1.30;;
29812;SDS011;16707;48.106;11.548;2022-09-09T09:42:51;2.20;;;1.15;;
29812;SDS011;16707;48.106;11.548;2022-09-09T09:45:27;2.42;;;1.05;;
29812;SDS011;16707;48.106;11.548;2022-09-09T09:48:12;5.45;;;1.38;;
29812;SDS011;16707;48.106;11.548;2022-09-09T09:50:46;2.35;;;1.20;;
29812;SDS011;16707;48.106;11.548;2022-09-09T09:53:20;1.10;;;1.00;;
29812;SDS011;16707;48.106;11.548;2022-09-09T09:55:53;1.27;;;1.10;;
29812;SDS011;16707;48.106;11.548;2022-09-09T09:58:26;1.20;;;1.02;;
29812;SDS011;16707;48.106;11.548;2022-09-09T10:01:18;2.10;;;1.23;;
29812;SDS011;16707;48.106;11.548;2022-09-09T10:03:53;2.33;;;1.10;;
29812;SDS011;16707;48.106;11.548;2022-09-09T10:06:31;1.50;;;1.40;;
29812;SDS011;16707;48.106;11.548;2022-09-09T10:08:59;1.58;;;1.00;;
29812;SDS011;16707;48.106;11.548;2022-09-09T10:11:41;1.77;;;1.20;;
29812;SDS011;16707;48.106;11.548;2022-09-09T10:14:18;1.48;;;1.10;;
29812;SDS011;16707;48.106;11.548;2022-09-09T10:16:57;2.00;;;1.13;;
29812;SDS011;16707;48.106;11.548;2022-09-09T10:19:38;2.05;;;1.08;;
29812;SDS011;16707;48.106;11.548;2022-09-09T10:22:12;2.28;;;1.10;;
29812;SDS011;16707;48.106;11.548;2022-09-09T10:24:58;2.13;;;1.25;;
29812;SDS011;16707;48.106;11.548;2022-09-09T10:27:49;1.00;;;0.90;;
29812;SDS011;16707;48.106;11.548;2022-09-09T10:30:38;1.05;;;0.93;;
29812;SDS011;16707;48.106;11.548;2022-09-09T10:33:19;2.60;;;1.10;;
29812;SDS011;16707;48.106;11.548;2022-09-09T10:36:11;1.25;;;0.93;;
29812;SDS011;16707;48.106;11.548;2022-09-09T10:38:40;2.22;;;1.00;;
29812;SDS011;16707;48.106;11.548;2022-09-09T10:41:18;1.27;;;1.17;;
29812;SDS011;16707;48.106;11.548;2022-09-09T10:46:45;1.30;;;1.13;;
29812;SDS011;16707;48.106;11.548;2022-09-09T10:49:34;1.55;;;1.20;;
29812;SDS011;16707;48.106;11.548;2022-09-09T10:52:20;1.63;;;0.90;;
29812;SDS011;16707;48.106;11.548;2022-09-09T10:54:55;2.03;;;1.00;;
29812;SDS011;16707;48.106;11.548;2022-09-09T10:57:28;1.00;;;1.00;;
29812;SDS011;16707;48.106;11.548;2022-09-09T11:00:02;0.82;;;0.80;;
29812;SDS011;16707;48.106;11.548;2022-09-09T11:02:34;1.95;;;1.20;;
29812;SDS011;16707;48.106;11.548;2022-09-09T11:05:03;1.30;;;0.98;;
29812;SDS011;16707;48.106;11.548;2022-09-09T11:07:40;0.90;;;0.90;;
29812;SDS011;16707;48.106;11.548;2022-09-09T11:10:16;0.80;;;0.80;;
29812;SDS011;16707;48.106;11.548;2022-09-09T11:12:50;1.95;;;0.88;;
29812;SDS011;16707;48.106;11.548;2022-09-09T11:15:29;1.92;;;1.13;;
29812;SDS011;16707;48.106;11.548;2022-09-09T11:18:03;1.00;;;0.70;;
29812;SDS011;16707;48.106;11.548;2022-09-09T11:20:37;0.90;;;0.70;;
29812;SDS011;16707;48.106;11.548;2022-09-09T11:23:11;1.98;;;1.10;;
29812;SDS011;16707;48.106;11.548;2022-09-09T11:25:50;1.13;;;1.00;;
29812;SDS011;16707;48.106;11.548;2022-09-09T11:28:35;1.02;;;0.70;;
29812;SDS011;16707;48.106;11.548;2022-09-09T11:31:30;0.95;;;0.80;;
29812;SDS011;16707;48.106;11.548;2022-09-09T11:37:08;1.05;;;0.60;;
29812;SDS011;16707;48.106;11.548;2022-09-09T11:43:01;0.88;;;0.55;;
29812;SDS011;16707;48.106;11.548;2022-09-09T11:45:33;0.88;;;0.40;;
29812;SDS011;16707;48.106;11.548;2022-09-09T11:48:04;1.25;;;0.60;;
29812;SDS011;16707;48.106;11.548;2022-09-09T11:50:57;1.02;;;0.68;;
29812;SDS011;16707;48.106;11.548;2022-09-09T11:53:47;0.55;;;0.52;;
29812;SDS011;16707;48.106;11.548;2022-09-09T11:56:27;0.55;;;0.52;;
29812;SDS011;16707;48.106;11.548;2022-09-09T11:59:00;0.57;;;0.57;;
29812;SDS011;16707;48.106;11.548;2022-09-09T12:01:35;1.02;;;0.70;;
29812;SDS011;16707;48.106;11.548;2022-09-09T12:04:17;1.40;;;0.50;;
29812;SDS011;16707;48.106;11.548;2022-09-09T12:06:59;1.85;;;0.75;;
29812;SDS011;16707;48.106;11.548;2022-09-09T12:09:30;0.73;;;0.70;;
29812;SDS011;16707;48.106;11.548;2022-09-09T12:15:15;1.25;;;0.90;;
29812;SDS011;16707;48.106;11.548;2022-09-09T12:17:54;0.63;;;0.60;;
29812;SDS011;16707;48.106;11.548;2022-09-09T12:20:26;1.13;;;0.80;;
29812;SDS011;16707;48.106;11.548;2022-09-09T12:23:05;2.33;;;1.00;;
29812;SDS011;16707;48.106;11.548;2022-09-09T12:26:00;2.15;;;0.75;;
29812;SDS011;16707;48.106;11.548;2022-09-09T12:29:02;1.05;;;0.65;;
29812;SDS011;16707;48.106;11.548;2022-09-09T12:31:41;1.30;;;0.80;;
29812;SDS011;16707;48.106;11.548;2022-09-09T12:34:22;1.02;;;0.70;;
29812;SDS011;16707;48.106;11.548;2022-09-09T12:37:03;0.75;;;0.70;;
29812;SDS011;16707;48.106;11.548;2022-09-09T12:39:38;1.58;;;0.50;;
29812;SDS011;16707;48.106;11.548;2022-09-09T12:42:17;1.27;;;0.90;;
29812;SDS011;16707;48.106;11.548;2022-09-09T12:44:53;1.10;;;0.77;;
29812;SDS011;16707;48.106;11.548;2022-09-09T12:47:25;1.85;;;0.60;;
29812;SDS011;16707;48.106;11.548;2022-09-09T12:50:01;2.70;;;0.90;;
29812;SDS011;16707;48.106;11.548;2022-09-09T12:52:29;2.08;;;0.80;;
29812;SDS011;16707;48.106;11.548;2022-09-09T12:55:00;1.30;;;0.73;;
29812;SDS011;16707;48.106;11.548;2022-09-09T12:57:32;2.65;;;0.90;;
29812;SDS011;16707;48.106;11.548;2022-09-09T13:00:11;2.00;;;1.00;;
29812;SDS011;16707;48.106;11.548;2022-09-09T13:02:47;0.98;;;0.77;;
29812;SDS011;16707;48.106;11.548;2022-09-09T13:05:22;2.78;;;1.23;;
29812;SDS011;16707;48.106;11.548;2022-09-09T13:07:51;1.08;;;0.82;;
29812;SDS011;16707;48.106;11.548;2022-09-09T13:10:29;1.75;;;0.95;;
29812;SDS011;16707;48.106;11.548;2022-09-09T13:13:03;1.02;;;0.70;;
29812;SDS011;16707;48.106;11.548;2022-09-09T13:15:36;1.27;;;0.80;;
29812;SDS011;16707;48.106;11.548;2022-09-09T13:18:05;0.85;;;0.63;;
29812;SDS011;16707;48.106;11.548;2022-09-09T13:20:38;0.60;;;0.60;;
29812;SDS011;16707;48.106;11.548;2022-09-09T13:23:05;0.70;;;0.60;;
29812;SDS011;16707;48.106;11.548;2022-09-09T13:25:38;1.98;;;0.80;;
29812;SDS011;16707;48.106;11.548;2022-09-09T13:28:18;2.70;;;0.70;;
29812;SDS011;16707;48.106;11.548;2022-09-09T13:30:57;1.20;;;0.90;;
29812;SDS011;16707;48.106;11.548;2022-09-09T13:33:31;2.28;;;0.75;;
29812;SDS011;16707;48.106;11.548;2022-09-09T13:36:02;0.80;;;0.70;;
29812;SDS011;16707;48.106;11.548;2022-09-09T13:38:35;0.52;;;0.52;;
29812;SDS011;16707;48.106;11.548;2022-09-09T13:41:29;1.00;;;0.60;;
29812;SDS011;16707;48.106;11.548;2022-09-09T13:44:19;0.50;;;0.50;;
29812;SDS011;16707;48.106;11.548;2022-09-09T13:49:31;1.85;;;0.70;;
29812;SDS011;16707;48.106;11.548;2022-09-09T13:52:03;1.10;;;0.80;;
29812;SDS011;16707;48.106;11.548;2022-09-09T13:54:40;0.65;;;0.60;;
29812;SDS011;16707;48.106;11.548;2022-09-09T13:57:21;0.57;;;0.57;;
29812;SDS011;16707;48.106;11.548;2022-09-09T13:59:53;1.38;;;0.77;;
29812;SDS011;16707;48.106;11.548;2022-09-09T14:02:24;3.13;;;1.00;;
29812;SDS011;16707;48.106;11.548;2022-09-09T14:04:59;1.15;;;0.77;;
29812;SDS011;16707;48.106;11.548;2022-09-09T14:07:26;0.70;;;0.70;;
29812;SDS011;16707;48.106;11.548;2022-09-09T14:09:54;11.98;;;5.35;;
29812;SDS011;16707;48.106;11.548;2022-09-09T14:12:25;1.02;;;0.50;;
29812;SDS011;16707;48.106;11.548;2022-09-09T14:14:55;0.75;;;0.50;;
29812;SDS011;16707;48.106;11.548;2022-09-09T14:17:30;1.83;;;1.02;;
29812;SDS011;16707;48.106;11.548;2022-09-09T14:19:58;3.03;;;0.70;;
29812;SDS011;16707;48.106;11.548;2022-09-09T14:22:27;0.82;;;0.70;;
29812;SDS011;16707;48.106;11.548;2022-09-09T14:24:57;2.00;;;0.90;;
29812;SDS011;16707;48.106;11.548;2022-09-09T14:27:31;0.73;;;0.60;;
29812;SDS011;16707;48.106;11.548;2022-09-09T14:30:04;2.15;;;0.93;;
29812;SDS011;16707;48.106;11.548;2022-09-09T14:32:34;1.85;;;0.80;;
29812;SDS011;16707;48.106;11.548;2022-09-09T14:35:04;1.17;;;0.70;;
29812;SDS011;16707;48.106;11.548;2022-09-09T14:37:34;0.98;;;0.68;;
29812;SDS011;16707;48.106;11.548;2022-09-09T14:40:02;1.13;;;0.63;;
29812;SDS011;16707;48.106;11.548;2022-09-09T14:42:33;2.88;;;1.02;;
29812;SDS011;16707;48.106;11.548;2022-09-09T14:45:01;1.20;;;0.70;;
29812;SDS011;16707;48.106;11.548;2022-09-09T14:47:29;1.02;;;0.70;;
29812;SDS011;16707;48.106;11.548;2022-09-09T14:49:59;2.53;;;0.68;;
29812;SDS011;16707;48.106;11.548;2022-09-09T14:52:30;1.45;;;0.82;;
29812;SDS011;16707;48.106;11.548;2022-09-09T14:54:57;1.30;;;0.60;;
29812;SDS011;16707;48.106;11.548;2022-09-09T14:57:26;1.35;;;0.73;;
29812;SDS011;16707;48.106;11.548;2022-09-09T14:59:54;1.75;;;0.93;;
29812;SDS011;16707;48.106;11.548;2022-09-09T15:02:24;1.83;;;0.90;;
29812;SDS011;16707;48.106;11.548;2022-09-09T15:04:52;0.98;;;0.52;;
29812;SDS011;16707;48.106;11.548;2022-09-09T15:07:26;0.73;;;0.63;;
29812;SDS011;16707;48.106;11.548;2022-09-09T15:09:57;2.50;;;1.00;;
29812;SDS011;16707;48.106;11.548;2022-09-09T15:12:24;1.55;;;0.70;;
29812;SDS011;16707;48.106;11.548;2022-09-09T15:14:53;1.20;;;0.70;;
29812;SDS011;16707;48.106;11.548;2022-09-09T15:17:21;3.35;;;0.90;;
29812;SDS011;16707;48.106;11.548;2022-09-09T15:19:49;2.05;;;1.15;;
29812;SDS011;16707;48.106;11.548;2022-09-09T15:22:17;1.60;;;0.93;;
29812;SDS011;16707;48.106;11.548;2022-09-09T15:24:46;0.80;;;0.75;;
29812;SDS011;16707;48.106;11.548;2022-09-09T15:27:14;0.90;;;0.90;;
29812;SDS011;16707;48.106;11.548;2022-09-09T15:29:41;1.63;;;0.80;;
29812;SDS011;16707;48.106;11.548;2022-09-09T15:32:09;2.17;;;0.80;;
29812;SDS011;16707;48.106;11.548;2022-09-09T15:34:38;2.42;;;0.98;;
29812;SDS011;16707;48.106;11.548;2022-09-09T15:37:06;0.93;;;0.68;;
29812;SDS011;16707;48.106;11.548;2022-09-09T15:39:41;1.13;;;0.80;;
29812;SDS011;16707;48.106;11.548;2022-09-09T15:42:14;2.25;;;1.10;;